createdAt,value
2019-06-20T00:02:05.956Z,100108.21
2019-06-20T00:04:39.909Z,100109.33
2019-06-20T00:07:12.300Z,100102.06
2019-06-20T00:09:44.542Z,100099.34
2019-06-20T00:12:16.617Z,100106.58
2019-06-20T00:14:48.618Z,100110.02
2019-06-20T00:17:20.687Z,100112.06
2019-06-20T00:19:52.729Z,100106.44
2019-06-20T00:22:26.352Z,100109.27
2019-06-20T00:24:58.347Z,100105.13
2019-06-20T00:27:30.475Z,100100.61
2019-06-20T00:30:02.536Z,100101.57
2019-06-20T00:32:35.905Z,100104.00
2019-06-20T00:35:08.317Z,100095.50
2019-06-20T00:37:42.006Z,100099.57
2019-06-20T00:40:16.396Z,100092.03
2019-06-20T00:42:48.439Z,100088.72
2019-06-20T00:45:23.933Z,100047.11
2019-06-20T00:47:56.059Z,100087.11
2019-06-20T00:50:28.249Z,100089.55
2019-06-20T00:53:00.314Z,100086.08
2019-06-20T00:55:34.859Z,100088.70
2019-06-20T00:58:07.009Z,100089.73
2019-06-20T01:00:39.393Z,100082.59
2019-06-20T01:03:13.359Z,100083.48
2019-06-20T01:05:45.904Z,100085.55
2019-06-20T01:08:18.180Z,100082.47
2019-06-20T01:10:50.745Z,100078.23
2019-06-20T01:13:33.201Z,100075.03
2019-06-20T01:15:57.104Z,100080.30
2019-06-20T01:18:29.390Z,100079.88
2019-06-20T01:21:03.605Z,100079.48
2019-06-20T01:23:35.755Z,100081.85
2019-06-20T01:26:07.874Z,100077.16
2019-06-20T01:28:40.178Z,100077.95
2019-06-20T01:31:14.085Z,100067.58
2019-06-20T01:33:46.141Z,100067.42
2019-06-20T01:36:18.222Z,100062.04
2019-06-20T01:38:50.212Z,100057.48
2019-06-20T01:41:22.537Z,100054.86
2019-06-20T01:43:54.525Z,100055.14
2019-06-20T01:46:27.156Z,100050.44
2019-06-20T01:48:59.268Z,100050.51
2019-06-20T01:51:31.246Z,100052.66
2019-06-20T01:54:04.164Z,100051.06
2019-06-20T01:56:36.338Z,100049.25
2019-06-20T01:59:08.404Z,100047.06
2019-06-20T02:01:40.469Z,100044.84
2019-06-20T02:04:12.612Z,100041.61
2019-06-20T02:06:45.268Z,100043.06
2019-06-20T02:09:17.411Z,100044.03
2019-06-20T02:11:49.602Z,100039.33
2019-06-20T02:14:21.632Z,100038.66
2019-06-20T02:16:53.737Z,99992.00
2019-06-20T02:19:25.789Z,100030.55
2019-06-20T02:21:58.364Z,100037.70
2019-06-20T02:24:30.605Z,100036.14
2019-06-20T02:27:02.701Z,100031.89
2019-06-20T02:29:35.230Z,100021.60
2019-06-20T02:32:07.392Z,100028.77
2019-06-20T02:34:41.196Z,100021.83
2019-06-20T02:37:13.191Z,100021.75
2019-06-20T02:39:45.155Z,100022.03
2019-06-20T02:42:17.105Z,100028.31
2019-06-20T02:44:49.047Z,100025.09
2019-06-20T02:47:21.062Z,100016.48
2019-06-20T02:49:53.012Z,100014.20
2019-06-20T02:52:25.372Z,100022.94
2019-06-20T02:54:57.336Z,100020.50
2019-06-20T02:57:29.333Z,100024.17
2019-06-20T03:00:01.296Z,100020.89
2019-06-20T03:02:34.992Z,100023.28
2019-06-20T03:05:07.577Z,100024.52
2019-06-20T03:07:39.923Z,100021.05
2019-06-20T03:10:12.252Z,100024.52
2019-06-20T03:12:44.915Z,100033.02
2019-06-20T03:15:17.247Z,100027.55
2019-06-20T03:17:49.369Z,100028.48
2019-06-20T03:20:21.633Z,100029.66
2019-06-20T03:22:55.040Z,100023.77
2019-06-20T03:25:27.311Z,100023.97
2019-06-20T03:27:59.359Z,100024.33
2019-06-20T03:30:31.464Z,100018.98
2019-06-20T03:33:03.673Z,100026.45
2019-06-20T03:35:35.831Z,100023.49
2019-06-20T03:38:07.935Z,100024.45
2019-06-20T03:40:39.981Z,100028.77
2019-06-20T03:43:12.056Z,100022.45
2019-06-20T03:45:44.762Z,100030.65
2019-06-20T03:48:16.793Z,100026.89
2019-06-20T03:50:48.791Z,100030.34
2019-06-20T03:53:20.995Z,100024.03
2019-06-20T03:55:53.129Z,100025.36
2019-06-20T03:58:25.204Z,100027.28
2019-06-20T04:00:58.949Z,100027.28
2019-06-20T04:03:31.091Z,100028.47
2019-06-20T04:06:04.329Z,100028.00
2019-06-20T04:08:36.788Z,100024.80
2019-06-20T04:11:10.779Z,100031.39
2019-06-20T04:13:42.833Z,100038.73
2019-06-20T04:16:15.314Z,100035.48
2019-06-20T04:18:47.381Z,100029.08
2019-06-20T04:21:19.361Z,100025.08
2019-06-20T04:23:52.969Z,100022.45
2019-06-20T04:26:27.030Z,100026.52
2019-06-20T04:28:59.051Z,100026.88
2019-06-20T04:31:31.089Z,100028.40
2019-06-20T04:34:03.285Z,100020.02
2019-06-20T04:36:35.683Z,100019.81
2019-06-20T04:39:18.745Z,100020.90
2019-06-20T04:41:42.392Z,100026.88
2019-06-20T04:44:14.508Z,100029.36
2019-06-20T04:47:03.001Z,100029.08
2019-06-20T04:49:35.076Z,100021.81
2019-06-20T04:52:07.320Z,100021.94
2019-06-20T04:54:39.282Z,100020.58
2019-06-20T04:57:11.299Z,100015.51
2019-06-20T04:59:43.379Z,100012.31
2019-06-20T05:02:17.236Z,100008.72
2019-06-20T05:04:49.361Z,100004.41
2019-06-20T05:07:21.706Z,100008.72
2019-06-20T05:09:53.813Z,100007.89
2019-06-20T05:12:25.831Z,99989.64
2019-06-20T05:14:58.336Z,99988.81
2019-06-20T05:17:30.589Z,99993.39
2019-06-20T05:20:02.580Z,99989.52
2019-06-20T05:22:35.068Z,99986.93
2019-06-20T05:25:07.915Z,99998.86
2019-06-20T05:27:39.980Z,100008.16
2019-06-20T05:30:12.952Z,100006.28
2019-06-20T05:32:44.964Z,100000.05
2019-06-20T05:35:17.180Z,100000.88
2019-06-20T05:37:49.235Z,100002.72
2019-06-20T05:40:21.801Z,100008.56
2019-06-20T05:42:55.612Z,100005.45
2019-06-20T05:45:27.567Z,100010.22
2019-06-20T05:47:59.504Z,100019.82
2019-06-20T05:50:31.490Z,100022.19
2019-06-20T05:53:04.265Z,100015.12
2019-06-20T05:55:37.438Z,100023.49
2019-06-20T05:58:10.323Z,100018.26
2019-06-20T06:00:42.761Z,100010.95
2019-06-20T06:03:16.004Z,100011.24
2019-06-20T06:05:48.535Z,100009.98
2019-06-20T06:08:20.470Z,100015.30
2019-06-20T06:10:52.441Z,100007.48
2019-06-20T06:13:25.818Z,100010.02
2019-06-20T06:15:57.878Z,100005.09
2019-06-20T06:18:29.840Z,100003.86
2019-06-20T06:21:02.541Z,100008.44
2019-06-20T06:23:34.572Z,100019.23
2019-06-20T06:26:06.697Z,100021.74
2019-06-20T06:28:38.726Z,100022.37
2019-06-20T06:31:12.555Z,100023.61
2019-06-20T06:33:44.552Z,100022.92
2019-06-20T06:36:17.576Z,100031.41
2019-06-20T06:38:51.235Z,100022.05
2019-06-20T06:41:23.327Z,100014.70
2019-06-20T06:43:55.282Z,100017.15
2019-06-20T06:46:42.955Z,100016.86
2019-06-20T06:49:01.261Z,100020.80
2019-06-20T06:51:33.214Z,100015.91
2019-06-20T06:54:05.255Z,100016.64
2019-06-20T06:56:37.226Z,100022.18
2019-06-20T06:59:09.260Z,100026.36
2019-06-20T07:01:41.564Z,100024.66
2019-06-20T07:04:13.586Z,100017.97
2019-06-20T07:06:46.188Z,100020.55
2019-06-20T07:09:18.256Z,100023.91
2019-06-20T07:11:50.509Z,100020.11
2019-06-20T07:14:22.645Z,100019.69
2019-06-20T07:17:00.381Z,100020.88
2019-06-20T07:19:28.489Z,100014.81
2019-06-20T07:22:01.059Z,100015.32
2019-06-20T07:24:33.144Z,100014.27
2019-06-20T07:27:06.384Z,100020.85
2019-06-20T07:29:38.439Z,100017.50
2019-06-20T07:32:10.506Z,100025.77
2019-06-20T07:34:44.180Z,100018.80
2019-06-20T07:37:16.268Z,100024.41
2019-06-20T07:39:48.354Z,100026.14
2019-06-20T07:42:20.404Z,100032.32
2019-06-20T07:44:52.478Z,100038.45
2019-06-20T07:47:24.599Z,100037.09
2019-06-20T07:49:56.674Z,100033.16
2019-06-20T07:52:28.870Z,100026.86
2019-06-20T07:55:00.914Z,100027.23
2019-06-20T07:57:32.970Z,100032.91
2019-06-20T08:00:08.655Z,100035.27
2019-06-20T08:02:41.327Z,100038.24
2019-06-20T08:05:14.088Z,100041.89
2019-06-20T08:07:46.482Z,100036.21
2019-06-20T08:10:20.388Z,100039.60
2019-06-20T08:12:52.490Z,100037.36
2019-06-20T08:15:26.337Z,100039.38
2019-06-20T08:17:58.452Z,100045.45
2019-06-20T08:20:30.563Z,100040.48
2019-06-20T08:23:04.433Z,100041.52
2019-06-20T08:25:36.644Z,100039.38
2019-06-20T08:28:08.772Z,100045.77
2019-06-20T08:30:40.903Z,100048.09
2019-06-20T08:33:12.960Z,100042.86
2019-06-20T08:35:45.102Z,100044.17
2019-06-20T08:38:17.132Z,100044.09
2019-06-20T08:40:49.152Z,100039.75
2019-06-20T08:43:21.144Z,100041.05
2019-06-20T08:45:53.303Z,100040.05
2019-06-20T08:48:25.359Z,100040.83
2019-06-20T08:50:58.525Z,100040.02
2019-06-20T08:53:30.702Z,100034.77
2019-06-20T08:56:05.496Z,100031.12
2019-06-20T08:58:37.903Z,100025.17
2019-06-20T09:03:40.449Z,100021.41
2019-06-20T09:06:12.549Z,100021.80
2019-06-20T09:08:44.681Z,100020.70
2019-06-20T09:11:16.867Z,100024.39
2019-06-20T09:13:49.073Z,100030.59
2019-06-20T09:16:24.620Z,100023.56
2019-06-20T09:18:56.616Z,100022.92
2019-06-20T09:21:28.801Z,100020.44
2019-06-20T09:24:00.954Z,100018.97
2019-06-20T09:26:32.963Z,100028.80
2019-06-20T09:29:06.870Z,100019.86
2019-06-20T09:31:38.807Z,100025.66
2019-06-20T09:34:10.858Z,100023.20
2019-06-20T09:36:42.999Z,100023.04
2019-06-20T09:39:14.945Z,100014.70
2019-06-20T09:41:47.339Z,100022.52
2019-06-20T09:44:19.405Z,100019.66
2019-06-20T09:46:52.402Z,100026.18
2019-06-20T09:49:26.788Z,100041.00
2019-06-20T09:51:58.783Z,100032.59
2019-06-20T09:54:31.823Z,100040.67
2019-06-20T09:57:03.827Z,100049.84
2019-06-20T09:59:37.054Z,100039.66
2019-06-20T10:02:09.349Z,100046.72
2019-06-20T10:04:41.315Z,100048.05
2019-06-20T10:07:14.104Z,100049.67
2019-06-20T10:09:47.086Z,100047.19
2019-06-20T10:12:19.871Z,100043.92
2019-06-20T10:14:51.813Z,100045.64
2019-06-20T10:17:23.793Z,100045.64
2019-06-20T10:19:56.342Z,100048.19
2019-06-20T10:22:30.467Z,100046.14
2019-06-20T10:25:02.408Z,100044.55
2019-06-20T10:27:34.481Z,100049.09
2019-06-20T10:30:14.327Z,100050.73
2019-06-20T10:32:40.726Z,100048.02
2019-06-20T10:35:13.776Z,100040.75
2019-06-20T10:37:47.184Z,100044.52
2019-06-20T10:40:20.123Z,100043.48
2019-06-20T10:42:53.031Z,100039.56
2019-06-20T10:45:26.466Z,100043.97
2019-06-20T10:47:58.472Z,100046.48
2019-06-20T10:50:30.855Z,100044.34
2019-06-20T10:53:04.342Z,100043.03
2019-06-20T10:55:36.395Z,100047.92
2019-06-20T10:58:08.519Z,100051.02
2019-06-20T11:00:41.765Z,100052.70
2019-06-20T11:03:14.082Z,100051.80
2019-06-20T11:05:46.043Z,100048.69
2019-06-20T11:08:18.171Z,100047.80
2019-06-20T11:10:50.186Z,100054.02
2019-06-20T11:13:23.111Z,100048.85
2019-06-20T11:15:55.050Z,100047.19
2019-06-20T11:18:26.978Z,100048.81
2019-06-20T11:20:59.155Z,100046.79
2019-06-20T11:23:31.168Z,100040.83
2019-06-20T11:26:04.424Z,100046.14
2019-06-20T11:28:37.683Z,100033.45
2019-06-20T11:31:10.088Z,100034.20
2019-06-20T11:33:42.162Z,100034.44
2019-06-20T11:36:15.477Z,100035.33
2019-06-20T11:38:49.112Z,100037.27
2019-06-20T11:41:21.138Z,100031.23
2019-06-20T11:43:53.124Z,100036.10
2019-06-20T11:46:25.910Z,100025.06
2019-06-20T11:48:57.870Z,100028.26
2019-06-20T11:51:29.819Z,100024.30
2019-06-20T11:54:01.773Z,100033.40
2019-06-20T11:56:33.705Z,100028.11
2019-06-20T11:59:05.632Z,100032.66
2019-06-20T12:01:40.087Z,100041.30
2019-06-20T12:04:13.131Z,100048.27
2019-06-20T12:06:45.063Z,100043.97
2019-06-20T12:09:17.393Z,100046.12
2019-06-20T12:11:49.403Z,100043.76
2019-06-20T12:14:21.354Z,100045.14
2019-06-20T12:16:53.267Z,100046.86
2019-06-20T12:19:25.208Z,100051.23
2019-06-20T12:21:57.154Z,100052.14
2019-06-20T12:24:29.165Z,100045.20
2019-06-20T12:27:01.084Z,100048.79
2019-06-20T12:29:33.200Z,100040.68
2019-06-20T12:32:05.813Z,100038.72
2019-06-20T12:34:38.925Z,100038.59
2019-06-20T12:37:11.471Z,100039.11
2019-06-20T12:39:44.429Z,100034.53
2019-06-20T12:42:16.874Z,100041.53
2019-06-20T12:44:50.706Z,100037.77
2019-06-20T12:47:22.598Z,100036.87
2019-06-20T12:49:55.121Z,100037.92
2019-06-20T12:52:28.767Z,100037.50
2019-06-20T12:55:02.344Z,100040.07
2019-06-20T12:57:35.257Z,100046.77
2019-06-20T13:00:08.185Z,100041.89
2019-06-20T13:02:41.770Z,100032.77
2019-06-20T13:05:16.757Z,100041.92
2019-06-20T13:07:48.760Z,100039.38
2019-06-20T13:10:23.990Z,100039.95
2019-06-20T13:12:56.060Z,100039.10
2019-06-20T13:15:28.005Z,100035.44
2019-06-20T13:18:00.009Z,100032.25
2019-06-20T13:20:31.954Z,100033.39
2019-06-20T13:23:05.898Z,100025.62
2019-06-20T13:25:40.941Z,100028.80
2019-06-20T13:28:12.987Z,100032.84
2019-06-20T13:30:49.808Z,100026.19
2019-06-20T13:33:20.575Z,100024.00
2019-06-20T13:35:52.534Z,100021.98
2019-06-20T13:38:24.894Z,100023.08
2019-06-20T13:40:57.271Z,100021.52
2019-06-20T13:43:29.286Z,100018.96
2019-06-20T13:46:01.256Z,100024.95
2019-06-20T13:48:33.264Z,100022.34
2019-06-20T13:51:06.691Z,100025.30
2019-06-20T13:53:39.233Z,100025.00
2019-06-20T13:56:12.624Z,100022.02
2019-06-20T13:58:44.846Z,100027.44
2019-06-20T14:01:16.985Z,100021.81
2019-06-20T14:03:48.918Z,100023.86
2019-06-20T14:06:21.251Z,100027.89
2019-06-20T14:08:54.562Z,100034.95
2019-06-20T14:11:26.663Z,100025.92
2019-06-20T14:13:58.638Z,100029.00
2019-06-20T14:16:30.643Z,100024.56
2019-06-20T14:19:04.926Z,100027.37
2019-06-20T14:21:37.021Z,100028.41
2019-06-20T14:24:09.313Z,100025.44
2019-06-20T14:26:44.692Z,100021.86
2019-06-20T14:29:15.408Z,100020.84
2019-06-20T14:31:47.436Z,100025.08
2019-06-20T14:34:19.538Z,100020.48
2019-06-20T14:36:52.271Z,100020.71
2019-06-20T14:39:25.305Z,100014.84
2019-06-20T14:41:57.689Z,100025.84
2019-06-20T14:44:29.668Z,100022.12
2019-06-20T14:47:01.622Z,100018.97
2019-06-20T14:49:33.650Z,100009.95
2019-06-20T14:52:05.576Z,100010.22
2019-06-20T14:54:37.973Z,100013.31
2019-06-20T14:57:09.918Z,100011.84
2019-06-20T14:59:41.869Z,100011.23
2019-06-20T15:02:13.812Z,100005.45
2019-06-20T15:04:46.221Z,100005.03
2019-06-20T15:07:18.291Z,99999.55
2019-06-20T15:09:51.372Z,99996.30
2019-06-20T15:12:23.928Z,99995.54
2019-06-20T15:14:55.915Z,99987.63
2019-06-20T15:17:29.184Z,99993.22
2019-06-20T15:20:01.147Z,99988.63
2019-06-20T15:22:36.777Z,99989.38
2019-06-20T15:25:09.442Z,99982.04
2019-06-20T15:27:42.035Z,99981.22
2019-06-20T15:30:15.495Z,99977.53
2019-06-20T15:33:01.079Z,99974.62
2019-06-20T15:35:21.329Z,99970.86
2019-06-20T15:37:53.920Z,99969.11
2019-06-20T15:40:27.087Z,99964.14
2019-06-20T15:42:59.395Z,99965.34
2019-06-20T15:45:32.972Z,99967.91
2019-06-20T15:48:05.012Z,99964.31
2019-06-20T15:50:38.893Z,99963.59
2019-06-20T15:53:10.899Z,99959.97
2019-06-20T15:55:42.806Z,99958.47
2019-06-20T15:58:15.047Z,99952.75
2019-06-20T16:00:47.032Z,99953.31
2019-06-20T16:03:19.094Z,99958.77
2019-06-20T16:05:51.022Z,99954.71
2019-06-20T16:08:22.995Z,99959.54
2019-06-20T16:10:54.982Z,99959.91
2019-06-20T16:13:27.530Z,99966.02
2019-06-20T16:15:59.542Z,99960.53
2019-06-20T16:18:33.816Z,99965.39
2019-06-20T16:21:05.791Z,99970.36
2019-06-20T16:23:43.107Z,99962.22
2019-06-20T16:26:15.021Z,99960.13
2019-06-20T16:28:48.628Z,99969.13
2019-06-20T16:31:26.926Z,99961.83
2019-06-20T16:33:54.289Z,99964.17
2019-06-20T16:36:26.268Z,99963.34
2019-06-20T16:38:58.191Z,99961.04
2019-06-20T16:41:30.196Z,99963.64
2019-06-20T16:44:02.177Z,99966.47
2019-06-20T16:46:34.390Z,99965.46
2019-06-20T16:49:06.489Z,99965.44
2019-06-20T16:51:38.885Z,99968.31
2019-06-20T16:54:10.808Z,99966.10
2019-06-20T16:56:42.881Z,99969.79
2019-06-20T16:59:14.898Z,99974.80
2019-06-20T17:01:46.815Z,99976.93
2019-06-20T17:04:18.820Z,99979.72
2019-06-20T17:06:50.798Z,99981.56
2019-06-20T17:09:22.710Z,99980.28
2019-06-20T17:11:54.699Z,99989.16
2019-06-20T17:14:26.660Z,99982.38
2019-06-20T17:16:58.703Z,99991.83
2019-06-20T17:19:30.656Z,99977.98
2019-06-20T17:22:02.691Z,99986.54
2019-06-20T17:24:34.795Z,99980.88
2019-06-20T17:27:06.821Z,99983.07
2019-06-20T17:29:41.958Z,99981.02
2019-06-20T17:32:13.966Z,99984.41
2019-06-20T17:34:46.002Z,99986.63
2019-06-20T17:37:18.069Z,99985.78
2019-06-20T17:39:50.044Z,99993.53
2019-06-20T17:42:22.055Z,99983.69
2019-06-20T17:44:54.056Z,99991.73
2019-06-20T17:47:28.483Z,99987.14
2019-06-20T17:50:00.486Z,99989.65
2019-06-20T17:52:34.522Z,99988.28
2019-06-20T17:55:07.432Z,99985.16
2019-06-20T17:57:39.759Z,99990.97
2019-06-20T18:00:15.344Z,99985.96
2019-06-20T18:02:48.988Z,99983.63
2019-06-20T18:05:21.813Z,99986.47
2019-06-20T18:07:55.399Z,99979.03
2019-06-20T18:10:27.742Z,99984.59
2019-06-20T18:13:00.139Z,99984.72
2019-06-20T18:15:34.130Z,99987.44
2019-06-20T18:18:06.379Z,99980.52
2019-06-20T18:20:38.423Z,99987.06
2019-06-20T18:23:10.518Z,99994.36
2019-06-20T18:25:44.172Z,99987.59
2019-06-20T18:28:17.976Z,99994.25
2019-06-20T18:30:50.155Z,99990.29
2019-06-20T18:33:22.105Z,99990.56
2019-06-20T18:35:55.690Z,99990.89
2019-06-20T18:38:27.688Z,99988.22
2019-06-20T18:40:59.668Z,99996.34
2019-06-20T18:43:34.497Z,99995.34
2019-06-20T18:46:06.453Z,100001.89
2019-06-20T18:48:40.031Z,99999.75
2019-06-20T18:51:11.997Z,100004.52
2019-06-20T18:53:43.970Z,100017.77
2019-06-20T18:56:16.128Z,100012.14
2019-06-20T18:58:48.151Z,100015.83
2019-06-20T19:01:20.205Z,100008.45
2019-06-20T19:03:52.374Z,100013.53
2019-06-20T19:06:35.623Z,100013.61
2019-06-20T19:08:59.990Z,100000.83
2019-06-20T19:11:31.933Z,100007.38
2019-06-20T19:14:04.019Z,100002.87
2019-06-20T19:16:35.978Z,100005.13
2019-06-20T19:19:08.218Z,100008.58
2019-06-20T19:21:42.446Z,100004.34
2019-06-20T19:24:14.468Z,100005.26
2019-06-20T19:26:46.489Z,100012.61
2019-06-20T19:29:18.481Z,100012.61
2019-06-20T19:31:50.818Z,100017.28
2019-06-20T19:34:24.433Z,100015.66
2019-06-20T19:36:56.944Z,100011.55
2019-06-20T19:39:28.898Z,100018.86
2019-06-20T19:42:00.885Z,100013.73
2019-06-20T19:44:33.297Z,100016.56
2019-06-20T19:47:05.358Z,100018.67
2019-06-20T19:49:37.529Z,100014.17
2019-06-20T19:52:09.483Z,100030.23
2019-06-20T19:54:41.710Z,100030.73
2019-06-20T19:57:13.803Z,100037.50
2019-06-20T19:59:46.294Z,100032.36
2019-06-20T20:02:18.451Z,100033.33
2019-06-20T20:04:50.489Z,100030.32
2019-06-20T20:07:22.521Z,100034.11
2019-06-20T20:09:54.465Z,100033.37
2019-06-20T20:12:26.405Z,100032.81
2019-06-20T20:14:58.410Z,100034.72
2019-06-20T20:17:30.377Z,100047.09
2019-06-20T20:20:03.608Z,100047.37
2019-06-20T20:22:36.467Z,100058.77
2019-06-20T20:25:09.493Z,100067.78
2019-06-20T20:27:41.460Z,100063.22
2019-06-20T20:30:14.583Z,100074.89
2019-06-20T20:32:46.710Z,100074.67
2019-06-20T20:35:34.503Z,100080.06
2019-06-20T20:37:52.657Z,100087.67
2019-06-20T20:40:26.957Z,100091.38
2019-06-20T20:42:59.218Z,100096.14
2019-06-20T20:45:31.352Z,100096.75
2019-06-20T20:48:03.602Z,100102.03
2019-06-20T20:50:35.977Z,100113.53
2019-06-20T20:53:08.414Z,100116.17
2019-06-20T20:55:40.464Z,100111.49
2019-06-20T20:58:12.439Z,100121.77
2019-06-20T21:01:05.106Z,100123.20
2019-06-20T21:03:38.927Z,100124.70
2019-06-20T21:06:10.903Z,100138.22
2019-06-20T21:08:46.385Z,100139.06
2019-06-20T21:11:18.367Z,100144.99
2019-06-20T21:13:50.790Z,100144.23
2019-06-20T21:16:22.826Z,100150.05
2019-06-20T21:18:54.844Z,100146.99
2019-06-20T21:21:26.889Z,100148.61
2019-06-20T21:23:58.863Z,100151.55
2019-06-20T21:26:30.900Z,100156.48
2019-06-20T21:29:03.469Z,100156.16
2019-06-20T21:31:35.447Z,100161.15
2019-06-20T21:34:07.659Z,100163.50
2019-06-20T21:36:39.693Z,100161.20
2019-06-20T21:39:11.766Z,100166.86
2019-06-20T21:41:44.182Z,100167.52
2019-06-20T21:44:16.219Z,100175.63
2019-06-20T21:46:49.801Z,100175.22
2019-06-20T21:49:21.802Z,100180.16
2019-06-20T21:51:53.945Z,100189.09
2019-06-20T21:54:26.026Z,100186.26
2019-06-20T21:56:57.995Z,100188.55
2019-06-20T21:59:29.939Z,100190.11
2019-06-20T22:02:03.462Z,100189.08
2019-06-20T22:04:35.528Z,100191.12
2019-06-20T22:07:09.251Z,100189.48
2019-06-20T22:09:41.919Z,100187.22
2019-06-20T22:12:13.950Z,100189.27
2019-06-20T22:14:45.896Z,100193.03
2019-06-20T22:17:18.427Z,100199.89
2019-06-20T22:19:50.430Z,100204.02
2019-06-20T22:22:22.390Z,100205.42
2019-06-20T22:24:54.904Z,100206.74
2019-06-20T22:27:26.949Z,100203.19
2019-06-20T22:29:59.098Z,100205.72
2019-06-20T22:32:31.279Z,100204.10
2019-06-20T22:35:03.486Z,100206.68
2019-06-20T22:37:35.642Z,100201.08
2019-06-20T22:40:08.655Z,100199.27
2019-06-20T22:42:40.740Z,100200.00
2019-06-20T22:45:14.728Z,100201.58
2019-06-20T22:47:46.753Z,100197.55
2019-06-20T22:50:19.071Z,100198.03
2019-06-20T22:52:51.102Z,100201.22
2019-06-20T22:55:23.093Z,100196.17
2019-06-20T22:57:55.099Z,100206.69
2019-06-20T23:00:27.586Z,100201.16
2019-06-20T23:02:59.871Z,100205.83
2019-06-20T23:05:32.124Z,100214.44
2019-06-20T23:08:04.388Z,100217.72
2019-06-20T23:10:36.663Z,100220.07
2019-06-20T23:13:08.825Z,100222.78
2019-06-20T23:15:41.285Z,100221.96
2019-06-20T23:18:13.516Z,100223.15
2019-06-20T23:21:03.653Z,100225.85
2019-06-20T23:23:19.537Z,100226.28
2019-06-20T23:25:56.570Z,100227.92
2019-06-20T23:28:28.729Z,100221.05
2019-06-20T23:31:00.893Z,100229.16
2019-06-20T23:33:34.158Z,100223.64
2019-06-20T23:36:06.373Z,100227.41
2019-06-20T23:38:38.693Z,100224.96
2019-06-20T23:41:10.830Z,100228.20
2019-06-20T23:43:43.565Z,100224.02
2019-06-20T23:46:17.247Z,100227.90
2019-06-20T23:48:49.436Z,100228.03
2019-06-20T23:51:25.549Z,100221.34
2019-06-20T23:54:02.473Z,100225.97
2019-06-20T23:56:45.443Z,100219.05
2019-06-20T23:59:23.442Z,100225.00
